createdAt,value
2023-04-23T00:01:29.892Z,87.95
2023-04-23T00:03:56.365Z,87.85
2023-04-23T00:06:22.941Z,87.94
2023-04-23T00:08:49.319Z,87.87
2023-04-23T00:11:15.774Z,87.92
2023-04-23T00:13:42.356Z,87.88
2023-04-23T00:16:08.794Z,87.92
2023-04-23T00:18:35.161Z,87.88
2023-04-23T00:21:01.752Z,87.59
2023-04-23T00:23:28.126Z,87.49
2023-04-23T00:25:54.509Z,87.58
2023-04-23T00:28:22.219Z,87.66
2023-04-23T00:30:48.808Z,87.73
2023-04-23T00:33:15.170Z,87.86
2023-04-23T00:35:41.532Z,87.83
2023-04-23T00:38:08.128Z,87.86
2023-04-23T00:40:34.469Z,87.83
2023-04-23T00:43:00.829Z,87.84
2023-04-23T00:45:27.172Z,87.81
2023-04-23T00:47:53.582Z,87.89
2023-04-23T00:50:20.196Z,87.83
2023-04-23T00:52:46.557Z,87.91
2023-04-23T00:55:13.163Z,87.92
2023-04-23T00:57:39.550Z,87.84
2023-04-23T01:00:05.923Z,87.77
2023-04-23T01:02:32.423Z,87.83
2023-04-23T01:04:58.927Z,87.96
2023-04-23T01:07:25.270Z,87.86
2023-04-23T01:09:51.830Z,87.84
2023-04-23T01:12:18.410Z,87.84
2023-04-23T01:14:44.782Z,87.89
2023-04-23T01:17:11.166Z,88.01
2023-04-23T01:19:37.754Z,87.87
2023-04-23T01:22:04.138Z,87.86
2023-04-23T01:24:31.606Z,87.91
2023-04-23T01:26:57.988Z,87.87
2023-04-23T01:29:24.573Z,87.85
2023-04-23T01:31:50.958Z,87.87
2023-04-23T01:34:17.566Z,87.86
2023-04-23T01:36:43.927Z,87.85
2023-04-23T01:39:10.515Z,87.88
2023-04-23T01:41:37.118Z,87.91
2023-04-23T01:44:03.506Z,87.87
2023-04-23T01:46:29.906Z,87.90
2023-04-23T01:48:56.501Z,87.89
2023-04-23T01:51:22.836Z,87.94
2023-04-23T01:53:49.196Z,87.82
2023-04-23T01:56:15.561Z,87.71
2023-04-23T01:58:41.935Z,87.64
2023-04-23T02:01:10.809Z,87.81
2023-04-23T02:03:37.269Z,87.86
2023-04-23T02:06:03.925Z,87.84
2023-04-23T02:08:30.292Z,87.76
2023-04-23T02:10:56.652Z,87.92
2023-04-23T02:13:23.015Z,87.74
2023-04-23T02:15:49.404Z,87.64
2023-04-23T02:18:16.036Z,87.68
2023-04-23T02:20:42.405Z,87.84
2023-04-23T02:23:08.755Z,87.89
2023-04-23T02:25:35.333Z,87.90
2023-04-23T02:28:01.699Z,87.89
2023-04-23T02:30:28.068Z,87.88
2023-04-23T02:32:54.464Z,87.77
2023-04-23T02:35:20.860Z,87.80
2023-04-23T02:37:47.214Z,87.78
2023-04-23T02:40:13.611Z,87.83
2023-04-23T02:42:41.804Z,87.83
2023-04-23T02:45:09.667Z,87.88
2023-04-23T02:47:36.227Z,87.98
2023-04-23T02:50:02.649Z,87.89
2023-04-23T02:52:29.022Z,87.86
2023-04-23T02:54:55.602Z,87.93
2023-04-23T02:57:21.958Z,87.92
2023-04-23T02:59:48.549Z,87.91
2023-04-23T03:02:14.994Z,87.94
2023-04-23T03:04:41.788Z,87.97
2023-04-23T03:07:08.517Z,87.90
2023-04-23T03:09:35.099Z,87.96
2023-04-23T03:12:01.444Z,87.84
2023-04-23T03:14:28.028Z,87.88
2023-04-23T03:16:54.392Z,87.83
2023-04-23T03:19:20.974Z,87.97
2023-04-23T03:21:47.340Z,87.97
2023-04-23T03:24:13.939Z,87.89
2023-04-23T03:26:40.496Z,87.98
2023-04-23T03:29:07.055Z,87.93
2023-04-23T03:31:33.438Z,87.94
2023-04-23T03:34:00.069Z,88.01
2023-04-23T03:36:26.463Z,88.02
2023-04-23T03:38:53.061Z,88.03
2023-04-23T03:41:19.466Z,88.06
2023-04-23T03:43:46.067Z,88.07
2023-04-23T03:46:12.495Z,87.96
2023-04-23T03:48:39.112Z,87.99
2023-04-23T03:51:05.494Z,88.04
2023-04-23T03:53:31.878Z,88.01
2023-04-23T03:55:58.307Z,87.96
2023-04-23T03:58:24.885Z,87.98
2023-04-23T04:00:51.260Z,88.01
2023-04-23T04:03:17.775Z,88.01
2023-04-23T04:05:44.350Z,87.79
2023-04-23T04:08:10.765Z,87.90
2023-04-23T04:10:37.139Z,87.95
2023-04-23T04:13:03.740Z,88.08
2023-04-23T04:15:30.137Z,88.05
2023-04-23T04:17:56.580Z,88.02
2023-04-23T04:20:23.036Z,88.12
2023-04-23T04:22:49.406Z,88.12
2023-04-23T04:25:15.795Z,88.07
2023-04-23T04:27:42.185Z,88.11
2023-04-23T04:30:08.562Z,88.08
2023-04-23T04:32:34.935Z,88.10
2023-04-23T04:35:01.310Z,88.13
2023-04-23T04:37:27.682Z,88.14
2023-04-23T04:39:54.045Z,88.10
2023-04-23T04:42:20.416Z,88.11
2023-04-23T04:44:46.990Z,88.09
2023-04-23T04:47:13.446Z,88.07
2023-04-23T04:49:39.817Z,88.09
2023-04-23T04:52:06.190Z,88.08
2023-04-23T04:54:32.576Z,88.06
2023-04-23T04:56:58.939Z,88.12
2023-04-23T05:02:12.615Z,88.13
2023-04-23T05:04:39.415Z,88.08
2023-04-23T05:07:05.951Z,88.09
2023-04-23T05:09:32.321Z,88.09
2023-04-23T05:11:58.916Z,88.14
2023-04-23T05:14:25.479Z,88.09
2023-04-23T05:16:52.151Z,88.12
2023-04-23T05:19:18.578Z,88.10
2023-04-23T05:21:44.969Z,88.11
2023-04-23T05:24:11.366Z,88.06
2023-04-23T05:26:37.726Z,88.04
2023-04-23T05:29:04.156Z,88.05
2023-04-23T05:31:30.791Z,88.09
2023-04-23T05:33:57.498Z,88.11
2023-04-23T05:36:24.087Z,88.13
2023-04-23T05:38:50.451Z,88.08
2023-04-23T05:41:16.809Z,88.08
2023-04-23T05:43:43.193Z,88.11
2023-04-23T05:46:09.599Z,88.11
2023-04-23T05:48:35.978Z,88.09
2023-04-23T05:51:02.595Z,88.05
2023-04-23T05:53:28.965Z,88.14
2023-04-23T05:55:55.360Z,88.14
2023-04-23T05:58:21.949Z,88.11
2023-04-23T06:00:48.317Z,88.10
2023-04-23T06:03:14.881Z,88.07
2023-04-23T06:05:41.597Z,88.09
2023-04-23T06:08:08.442Z,88.06
2023-04-23T06:10:34.815Z,88.15
2023-04-23T06:13:01.407Z,88.09
2023-04-23T06:15:27.987Z,88.19
2023-04-23T06:17:54.451Z,88.17
2023-04-23T06:20:21.204Z,88.11
2023-04-23T06:22:47.604Z,88.15
2023-04-23T06:25:13.972Z,88.17
2023-04-23T06:27:40.341Z,88.11
2023-04-23T06:30:06.731Z,88.15
2023-04-23T06:32:33.180Z,88.15
2023-04-23T06:35:02.113Z,88.12
2023-04-23T06:37:29.916Z,88.19
2023-04-23T06:39:56.679Z,88.17
2023-04-23T06:42:23.087Z,88.15
2023-04-23T06:44:49.455Z,88.14
2023-04-23T06:47:15.822Z,88.14
2023-04-23T06:49:42.189Z,88.12
2023-04-23T06:52:08.575Z,88.13
2023-04-23T06:54:35.171Z,88.15
2023-04-23T06:57:01.540Z,88.14
2023-04-23T06:59:27.899Z,88.13
2023-04-23T07:01:54.274Z,88.16
2023-04-23T07:04:20.911Z,88.18
2023-04-23T07:06:47.361Z,88.21
2023-04-23T07:09:13.737Z,88.07
2023-04-23T07:11:40.124Z,88.07
2023-04-23T07:14:06.499Z,88.00
2023-04-23T07:16:32.937Z,87.90
2023-04-23T07:18:59.354Z,87.98
2023-04-23T07:21:25.776Z,87.70
2023-04-23T07:23:52.157Z,87.71
2023-04-23T07:26:18.548Z,87.71
2023-04-23T07:28:44.909Z,87.69
2023-04-23T07:33:58.450Z,87.90
2023-04-23T07:36:24.831Z,87.93
2023-04-23T07:38:51.266Z,87.75
2023-04-23T07:41:17.864Z,87.81
2023-04-23T07:43:44.226Z,87.92
2023-04-23T07:46:10.689Z,87.92
2023-04-23T07:48:37.297Z,87.87
2023-04-23T07:51:03.635Z,87.80
2023-04-23T07:53:30.011Z,87.99
2023-04-23T07:55:56.602Z,87.98
2023-04-23T07:58:23.184Z,87.98
2023-04-23T08:00:49.543Z,87.98
2023-04-23T08:03:16.259Z,87.94
2023-04-23T08:05:42.829Z,87.92
2023-04-23T08:08:09.255Z,87.84
2023-04-23T08:10:35.632Z,87.89
2023-04-23T08:13:02.221Z,87.72
2023-04-23T08:15:28.801Z,87.72
2023-04-23T08:17:55.453Z,87.71
2023-04-23T08:20:21.922Z,87.63
2023-04-23T08:22:48.313Z,87.70
2023-04-23T08:25:14.717Z,87.79
2023-04-23T08:27:41.332Z,87.87
2023-04-23T08:30:07.707Z,87.78
2023-04-23T08:32:34.345Z,87.67
2023-04-23T08:35:00.944Z,87.76
2023-04-23T08:37:31.334Z,87.63
2023-04-23T08:39:58.080Z,87.58
2023-04-23T08:42:24.688Z,87.69
2023-04-23T08:44:51.133Z,87.71
2023-04-23T08:47:17.697Z,87.86
2023-04-23T08:49:44.290Z,87.81
2023-04-23T08:52:11.049Z,87.75
2023-04-23T08:54:37.416Z,87.69
2023-04-23T08:57:03.788Z,87.70
2023-04-23T08:59:30.153Z,87.66
2023-04-23T09:01:56.824Z,87.78
2023-04-23T09:04:23.220Z,87.78
2023-04-23T09:06:49.605Z,87.72
2023-04-23T09:09:15.979Z,87.69
2023-04-23T09:11:42.363Z,87.71
2023-04-23T09:14:08.769Z,87.73
2023-04-23T09:16:35.196Z,87.63
2023-04-23T09:19:01.629Z,87.68
2023-04-23T09:21:28.004Z,87.60
2023-04-23T09:23:54.417Z,87.71
2023-04-23T09:26:20.803Z,87.74
2023-04-23T09:28:49.543Z,87.79
2023-04-23T09:31:16.381Z,87.77
2023-04-23T09:33:42.977Z,87.64
2023-04-23T09:36:09.367Z,87.62
2023-04-23T09:38:35.718Z,87.71
2023-04-23T09:41:02.104Z,87.54
2023-04-23T09:43:28.492Z,87.59
2023-04-23T09:45:54.911Z,87.50
2023-04-23T09:48:21.356Z,87.25
2023-04-23T09:50:47.739Z,87.24
2023-04-23T09:53:14.112Z,87.04
2023-04-23T09:55:41.340Z,87.11
2023-04-23T09:58:07.680Z,86.81
2023-04-23T10:00:34.306Z,86.77
2023-04-23T10:03:00.803Z,87.04
2023-04-23T10:05:33.931Z,87.11
2023-04-23T10:08:07.336Z,87.01
2023-04-23T10:10:36.359Z,86.83
2023-04-23T10:13:09.766Z,87.05
2023-04-23T10:15:36.367Z,86.86
2023-04-23T10:18:02.803Z,86.69
2023-04-23T10:20:29.455Z,86.90
2023-04-23T10:22:55.824Z,86.83
2023-04-23T10:25:22.732Z,86.99
2023-04-23T10:27:53.117Z,87.10
2023-04-23T10:30:20.908Z,86.87
2023-04-23T10:32:47.329Z,86.83
2023-04-23T10:35:13.733Z,86.92
2023-04-23T10:37:40.128Z,87.12
2023-04-23T10:40:06.522Z,87.02
2023-04-23T10:42:32.931Z,86.94
2023-04-23T10:45:07.191Z,86.90
2023-04-23T10:47:36.697Z,87.08
2023-04-23T10:50:03.781Z,87.35
2023-04-23T10:52:30.275Z,87.39
2023-04-23T10:54:56.666Z,87.32
2023-04-23T10:57:23.041Z,87.09
2023-04-23T10:59:49.406Z,87.31
2023-04-23T11:02:16.146Z,87.22
2023-04-23T11:04:42.961Z,87.19
2023-04-23T11:07:09.387Z,87.17
2023-04-23T11:09:35.980Z,87.14
2023-04-23T11:12:02.367Z,87.16
2023-04-23T11:14:28.750Z,87.25
2023-04-23T11:16:55.525Z,87.20
2023-04-23T11:19:21.941Z,87.18
2023-04-23T11:21:48.343Z,87.16
2023-04-23T11:24:15.288Z,87.23
2023-04-23T11:26:41.676Z,87.10
2023-04-23T11:29:08.062Z,87.24
2023-04-23T11:31:34.469Z,87.20
2023-04-23T11:34:01.086Z,87.30
2023-04-23T11:36:27.475Z,87.28
2023-04-23T11:38:53.849Z,87.23
2023-04-23T11:41:20.213Z,87.15
2023-04-23T11:43:46.581Z,87.05
2023-04-23T11:46:13.053Z,87.10
2023-04-23T11:48:39.509Z,87.01
2023-04-23T11:51:05.907Z,86.89
2023-04-23T11:53:32.301Z,86.96
2023-04-23T11:55:58.897Z,86.89
2023-04-23T11:58:25.271Z,86.89
2023-04-23T12:00:51.644Z,86.84
2023-04-23T12:03:18.129Z,86.86
2023-04-23T12:05:44.695Z,86.86
2023-04-23T12:08:11.119Z,86.91
2023-04-23T12:10:37.694Z,86.90
2023-04-23T12:13:04.063Z,86.90
2023-04-23T12:15:30.450Z,87.01
2023-04-23T12:17:57.062Z,86.92
2023-04-23T12:20:23.496Z,86.90
2023-04-23T12:22:49.856Z,86.85
2023-04-23T12:25:16.240Z,86.80
2023-04-23T12:27:42.702Z,86.80
2023-04-23T12:30:09.190Z,86.93
2023-04-23T12:32:35.796Z,86.84
2023-04-23T12:35:02.181Z,86.87
2023-04-23T12:37:28.573Z,86.82
2023-04-23T12:39:54.964Z,86.80
2023-04-23T12:42:21.324Z,86.78
2023-04-23T12:44:47.714Z,86.72
2023-04-23T12:47:14.062Z,86.69
2023-04-23T12:49:40.752Z,86.74
2023-04-23T12:52:07.308Z,86.81
2023-04-23T12:54:33.696Z,86.80
2023-04-23T12:57:00.057Z,86.77
2023-04-23T12:59:26.441Z,86.84
2023-04-23T13:01:52.852Z,86.85
2023-04-23T13:04:19.274Z,86.83
2023-04-23T13:06:46.213Z,86.77
2023-04-23T13:09:12.589Z,86.79
2023-04-23T13:11:38.994Z,86.84
2023-04-23T13:14:05.363Z,86.79
2023-04-23T13:16:31.735Z,86.92
2023-04-23T13:18:58.383Z,86.83
2023-04-23T13:21:26.243Z,86.85
2023-04-23T13:23:53.062Z,86.84
2023-04-23T13:26:19.441Z,86.83
2023-04-23T13:28:45.827Z,86.89
2023-04-23T13:31:12.216Z,86.85
2023-04-23T13:33:38.606Z,86.83
2023-04-23T13:36:04.964Z,86.83
2023-04-23T13:38:31.318Z,86.78
2023-04-23T13:40:57.715Z,86.79
2023-04-23T13:43:24.082Z,86.90
2023-04-23T13:45:50.456Z,86.89
2023-04-23T13:48:16.855Z,86.90
2023-04-23T13:50:43.921Z,86.83
2023-04-23T13:53:10.295Z,86.89
2023-04-23T13:55:36.904Z,86.94
2023-04-23T13:58:03.252Z,86.93
2023-04-23T14:00:29.609Z,86.92
2023-04-23T14:02:56.121Z,86.96
2023-04-23T14:05:22.591Z,86.91
2023-04-23T14:07:48.991Z,86.94
2023-04-23T14:10:16.217Z,86.94
2023-04-23T14:12:42.819Z,86.96
2023-04-23T14:15:09.221Z,87.00
2023-04-23T14:17:35.843Z,87.01
2023-04-23T14:20:02.237Z,86.95
2023-04-23T14:22:28.638Z,86.92
2023-04-23T14:24:54.997Z,86.92
2023-04-23T14:27:21.648Z,86.84
2023-04-23T14:29:48.020Z,87.00
2023-04-23T14:32:14.415Z,86.97
2023-04-23T14:34:40.807Z,86.98
2023-04-23T14:37:07.181Z,86.92
2023-04-23T14:39:33.587Z,86.93
2023-04-23T14:41:59.979Z,87.03
2023-04-23T14:44:27.199Z,87.02
2023-04-23T14:46:53.552Z,86.84
2023-04-23T14:49:19.912Z,86.85
2023-04-23T14:51:46.313Z,86.81
2023-04-23T14:54:12.727Z,86.83
2023-04-23T14:56:39.115Z,86.90
2023-04-23T14:59:05.680Z,86.84
2023-04-23T15:01:32.066Z,86.82
2023-04-23T15:03:58.744Z,86.83
2023-04-23T15:06:25.195Z,86.79
2023-04-23T15:08:51.803Z,86.84
2023-04-23T15:11:18.396Z,86.94
2023-04-23T15:13:44.770Z,87.03
2023-04-23T15:16:12.187Z,87.20
2023-04-23T15:18:38.569Z,87.21
2023-04-23T15:21:04.950Z,87.23
2023-04-23T15:23:31.321Z,87.23
2023-04-23T15:25:57.930Z,87.20
2023-04-23T15:28:24.291Z,87.16
2023-04-23T15:30:50.629Z,87.05
2023-04-23T15:33:17.234Z,87.03
2023-04-23T15:35:43.583Z,87.08
2023-04-23T15:38:09.935Z,87.07
2023-04-23T15:40:36.282Z,86.95
2023-04-23T15:43:02.669Z,86.95
2023-04-23T15:45:29.078Z,86.88
2023-04-23T15:47:55.507Z,86.91
2023-04-23T15:50:21.903Z,86.77
2023-04-23T15:52:50.359Z,86.90
2023-04-23T15:55:16.937Z,86.96
2023-04-23T15:57:43.299Z,87.03
2023-04-23T16:00:09.666Z,87.13
2023-04-23T16:02:36.183Z,87.13
2023-04-23T16:05:02.692Z,87.16
2023-04-23T16:07:29.069Z,87.13
2023-04-23T16:09:55.455Z,87.14
2023-04-23T16:12:21.854Z,87.17
2023-04-23T16:14:48.231Z,87.18
2023-04-23T16:17:14.627Z,87.17
2023-04-23T16:19:41.139Z,87.21
2023-04-23T16:22:07.732Z,87.23
2023-04-23T16:24:34.121Z,87.15
2023-04-23T16:27:00.494Z,87.15
2023-04-23T16:29:26.868Z,87.30
2023-04-23T16:31:53.257Z,87.21
2023-04-23T16:34:19.661Z,87.14
2023-04-23T16:36:46.263Z,87.19
2023-04-23T16:39:12.655Z,87.18
2023-04-23T16:41:39.049Z,87.23
2023-04-23T16:44:05.524Z,87.19
2023-04-23T16:46:32.317Z,87.12
2023-04-23T16:48:58.875Z,87.09
2023-04-23T16:51:25.316Z,87.22
2023-04-23T16:53:51.711Z,87.16
2023-04-23T16:56:18.282Z,87.19
2023-04-23T16:58:44.676Z,87.12
2023-04-23T17:01:11.067Z,87.14
2023-04-23T17:03:37.688Z,87.17
2023-04-23T17:06:04.204Z,87.16
2023-04-23T17:08:30.578Z,87.15
2023-04-23T17:10:56.967Z,87.17
2023-04-23T17:13:23.365Z,87.01
2023-04-23T17:15:49.733Z,87.01
2023-04-23T17:18:16.183Z,87.09
2023-04-23T17:20:42.576Z,87.11
2023-04-23T17:23:08.956Z,87.22
2023-04-23T17:25:35.326Z,87.18
2023-04-23T17:28:01.708Z,87.19
2023-04-23T17:30:28.178Z,87.23
2023-04-23T17:32:54.622Z,87.29
2023-04-23T17:35:21.074Z,87.26
2023-04-23T17:37:47.476Z,87.21
2023-04-23T17:40:13.917Z,87.25
2023-04-23T17:42:40.315Z,87.31
2023-04-23T17:45:06.939Z,87.39
2023-04-23T17:47:33.297Z,87.32
2023-04-23T17:49:59.724Z,87.15
2023-04-23T17:52:26.126Z,87.16
2023-04-23T17:54:52.522Z,87.39
2023-04-23T17:57:19.145Z,87.31
2023-04-23T17:59:45.507Z,87.26
2023-04-23T18:02:11.966Z,87.19
2023-04-23T18:04:38.451Z,87.31
2023-04-23T18:07:04.814Z,87.36
2023-04-23T18:09:31.442Z,87.35
2023-04-23T18:11:57.843Z,87.35
2023-04-23T18:14:24.234Z,87.28
2023-04-23T18:16:50.664Z,87.21
2023-04-23T18:19:17.086Z,87.04
2023-04-23T18:21:43.746Z,87.13
2023-04-23T18:24:10.102Z,87.07
2023-04-23T18:26:36.465Z,87.12
2023-04-23T18:29:02.853Z,87.05
2023-04-23T18:31:29.284Z,86.98
2023-04-23T18:33:55.724Z,86.98
2023-04-23T18:36:22.089Z,86.93
2023-04-23T18:38:48.655Z,87.10
2023-04-23T18:41:15.019Z,87.24
2023-04-23T18:43:41.398Z,87.19
2023-04-23T18:46:07.809Z,87.03
2023-04-23T18:48:34.220Z,87.30
2023-04-23T18:51:00.599Z,87.21
2023-04-23T18:53:26.978Z,87.18
2023-04-23T18:55:53.353Z,87.30
2023-04-23T18:58:19.729Z,87.28
2023-04-23T19:00:46.343Z,87.28
2023-04-23T19:03:24.238Z,87.21
2023-04-23T19:05:52.306Z,87.30
2023-04-23T19:08:18.697Z,87.19
2023-04-23T19:10:45.081Z,87.32
2023-04-23T19:13:11.438Z,87.34
2023-04-23T19:15:37.806Z,87.41
2023-04-23T19:18:04.582Z,87.19
2023-04-23T19:20:30.955Z,87.21
2023-04-23T19:22:57.326Z,87.08
2023-04-23T19:25:23.686Z,87.12
2023-04-23T19:27:50.071Z,87.18
2023-04-23T19:30:16.669Z,87.21
2023-04-23T19:32:43.060Z,87.32
2023-04-23T19:35:09.432Z,87.12
2023-04-23T19:37:35.814Z,87.02
2023-04-23T19:40:02.193Z,86.97
2023-04-23T19:42:28.806Z,86.93
2023-04-23T19:44:55.169Z,86.88
2023-04-23T19:47:21.584Z,87.01
2023-04-23T19:49:47.957Z,87.03
2023-04-23T19:52:14.332Z,87.08
2023-04-23T19:54:40.943Z,87.16
2023-04-23T19:57:07.332Z,87.20
2023-04-23T19:59:33.674Z,87.30
2023-04-23T20:02:00.060Z,87.33
2023-04-23T20:04:26.751Z,87.39
2023-04-23T20:06:53.228Z,87.39
2023-04-23T20:09:19.616Z,87.28
2023-04-23T20:11:46.035Z,87.25
2023-04-23T20:14:12.446Z,87.31
2023-04-23T20:16:39.068Z,87.43
2023-04-23T20:19:05.481Z,87.32
2023-04-23T20:21:31.868Z,87.31
2023-04-23T20:23:58.271Z,87.32
2023-04-23T20:26:24.649Z,87.35
2023-04-23T20:28:51.022Z,87.15
2023-04-23T20:31:18.032Z,87.42
2023-04-23T20:33:46.018Z,87.39
2023-04-23T20:36:12.408Z,87.31
2023-04-23T20:38:38.781Z,87.53
2023-04-23T20:41:05.178Z,87.42
2023-04-23T20:43:31.533Z,87.30
2023-04-23T20:45:58.171Z,87.22
2023-04-23T20:48:25.847Z,87.37
2023-04-23T20:50:52.435Z,87.39
2023-04-23T20:53:18.852Z,87.17
2023-04-23T20:55:45.246Z,87.44
2023-04-23T20:58:11.876Z,87.47
2023-04-23T21:00:38.289Z,87.40
2023-04-23T21:03:04.782Z,87.31
2023-04-23T21:05:31.289Z,87.46
2023-04-23T21:07:57.679Z,87.54
2023-04-23T21:10:24.066Z,87.59
2023-04-23T21:12:50.663Z,87.57
2023-04-23T21:15:17.036Z,87.52
2023-04-23T21:17:43.772Z,87.57
2023-04-23T21:20:10.122Z,87.51
2023-04-23T21:22:36.500Z,87.49
2023-04-23T21:25:02.865Z,87.43
2023-04-23T21:27:29.234Z,87.51
2023-04-23T21:29:55.620Z,87.53
2023-04-23T21:32:22.032Z,87.41
2023-04-23T21:34:48.471Z,87.35
2023-04-23T21:37:14.893Z,87.48
2023-04-23T21:39:41.802Z,87.39
2023-04-23T21:42:08.404Z,87.56
2023-04-23T21:44:34.799Z,87.63
2023-04-23T21:47:01.267Z,87.64
2023-04-23T21:49:27.647Z,87.66
2023-04-23T21:51:53.993Z,87.69
2023-04-23T21:54:20.365Z,87.57
2023-04-23T21:56:46.939Z,87.58
2023-04-23T21:59:13.301Z,87.69
2023-04-23T22:01:39.692Z,87.53
2023-04-23T22:04:06.247Z,87.68
2023-04-23T22:06:32.711Z,87.64
2023-04-23T22:08:59.102Z,87.62
2023-04-23T22:11:25.463Z,87.46
2023-04-23T22:13:52.072Z,87.55
2023-04-23T22:16:28.054Z,87.53
2023-04-23T22:18:55.562Z,87.60
2023-04-23T22:21:21.968Z,87.54
2023-04-23T22:23:48.374Z,87.53
2023-04-23T22:26:14.752Z,87.50
2023-04-23T22:28:41.121Z,87.50
2023-04-23T22:31:07.710Z,87.58
2023-04-23T22:33:34.072Z,87.40
2023-04-23T22:36:00.480Z,87.51
2023-04-23T22:38:26.865Z,87.58
2023-04-23T22:40:53.229Z,87.49
2023-04-23T22:43:19.612Z,87.45
2023-04-23T22:45:46.045Z,87.61
2023-04-23T22:48:12.641Z,87.69
2023-04-23T22:50:39.018Z,87.72
2023-04-23T22:53:05.402Z,87.70
2023-04-23T22:55:31.764Z,87.75
2023-04-23T22:57:58.173Z,87.73
2023-04-23T23:00:24.529Z,87.69
2023-04-23T23:02:50.988Z,87.80
2023-04-23T23:05:17.699Z,87.76
2023-04-23T23:07:44.099Z,87.67
2023-04-23T23:10:10.720Z,87.71
2023-04-23T23:12:37.102Z,87.68
2023-04-23T23:15:03.447Z,87.69
2023-04-23T23:17:29.820Z,87.72
2023-04-23T23:19:56.240Z,87.78
2023-04-23T23:22:22.620Z,87.77
2023-04-23T23:24:48.959Z,87.66
2023-04-23T23:27:15.543Z,87.70
2023-04-23T23:29:42.153Z,87.63
2023-04-23T23:32:08.752Z,87.45
2023-04-23T23:34:35.115Z,87.45
2023-04-23T23:37:01.488Z,87.44
2023-04-23T23:39:27.854Z,87.59
2023-04-23T23:41:54.236Z,87.50
2023-04-23T23:44:20.851Z,87.45
2023-04-23T23:46:47.268Z,87.47
2023-04-23T23:49:13.676Z,87.51
2023-04-23T23:51:40.065Z,87.62
2023-04-23T23:54:06.443Z,87.65
2023-04-23T23:56:32.798Z,87.59
2023-04-23T23:58:59.210Z,87.68
